Data for 08/22/2017

Time Sea-Level Adjusted Pressure Absolute Pressure Temperature Relative Humidity Dew Point   
(mb) (inHg) (mb) (inHg) (C) (F) (%) (C) (F)
00:05 1024 30.24 853 25.19 16.4 61.6 31 -0.7 30.8
00:10 1024 30.24 853 25.19 15.4 59.8 34 -0.3 31.5
00:15 1024 30.24 853 25.19 14.4 57.8 36 -0.3 31.5
00:20 1024 30.24 853 25.19 14.1 57.3 37 -0.4 31.2
00:25 1024 30.24 853 25.19 13.9 57 37 -0.4 31.3
00:30 1024 30.24 853 25.19 14 57.2 36 -0.8 30.5
00:35 1024 30.24 853 25.19 14.4 58 34 -1.2 29.9
00:40 1024 30.24 853 25.19 14.6 58.3 34 -0.8 30.5
00:45 1024 30.24 853 25.19 14.5 58.1 35 -0.8 30.6
00:50 1024 30.24 853 25.19 14.4 57.9 34 -1 30.2
00:55 1024 30.24 853 25.19 14.5 58.1 34 -1.1 30
01:00 1024 30.24 853 25.19 14.7 58.5 33 -1.2 29.9
01:05 1024 30.24 853 25.19 14.8 58.6 33 -1.1 30.1
01:10 1024 30.24 853 25.19 14.6 58.3 35 -0.7 30.7
01:15 1024 30.24 853 25.19 14.4 57.8 35 -0.7 30.7
01:20 1024 30.24 853 25.19 14.1 57.4 36 -0.7 30.8
01:25 1024 30.24 853 25.19 13.9 57.1 37 -0.4 31.2
01:30 1024 30.24 853 25.19 13.6 56.5 38 -0.2 31.6
01:35 1024 30.24 854 25.22 13.4 56 39 -0.2 31.7
01:40 1024 30.24 853 25.19 13.5 56.3 36 -1.1 30
01:45 1024 30.24 853 25.19 13.8 56.9 37 -0.7 30.8
01:50 1024 30.24 853 25.19 13.6 56.6 36 -1.1 30
01:55 1024 30.24 854 25.22 14 57.3 35 -1.1 30.1
02:00 1024 30.24 853 25.19 14.1 57.3 35 -0.9 30.3
02:05 1024 30.24 854 25.22 14.1 57.4 36 -0.8 30.5
02:10 1024 30.24 854 25.22 14.5 58.1 33 -1.4 29.4
02:15 1024 30.24 854 25.22 14.6 58.2 34 -1 30.2
02:20 1024 30.24 854 25.22 14.4 57.9 34 -1 30.1
02:25 1024 30.24 854 25.22 14.3 57.7 34 -1.3 29.6
02:30 1024 30.24 854 25.22 14.6 58.3 33 -1.3 29.7
02:35 1024 30.24 854 25.22 14.6 58.2 33 -1.3 29.7
02:40 1024 30.24 854 25.22 14.5 58 34 -1.2 29.9
02:45 1024 30.24 853 25.19 14.4 57.9 34 -1.2 29.8
02:50 1024 30.24 853 25.19 14.4 57.8 34 -1 30.1
02:55 1024 30.24 853 25.19 14.2 57.5 35 -1 30.2
03:00 1024 30.24 854 25.22 13.9 57 36 -1 30.2
03:05 1024 30.24 854 25.22 13.9 57.1 36 -0.7 30.7
03:10 1024 30.24 854 25.22 13.7 56.7 37 -0.5 31.1
03:15 1024 30.24 854 25.22 13.5 56.3 37 -0.7 30.7
03:20 1024 30.24 854 25.22 13.4 56.1 38 -0.5 31.1
03:25 1024 30.24 854 25.22 13.3 55.9 39 -0.3 31.4
03:30 1024 30.24 854 25.22 12.9 55.2 39 -0.7 30.7
03:35 1024 30.24 854 25.22 12.7 54.8 42 0.3 32.5
03:40 1024 30.24 854 25.22 12.3 54.2 41 -0.5 31
03:45 1024 30.24 854 25.22 12.7 54.9 38 -1.2 29.8
03:50 1024 30.24 854 25.22 13.2 55.8 37 -1 30.2
03:55 1024 30.24 854 25.22 13.1 55.6 39 -0.4 31.2
04:00 1024 30.24 854 25.22 13.1 55.5 38 -0.7 30.7
04:05 1024 30.24 854 25.22 13.3 55.9 38 -0.7 30.7
04:10 1024 30.24 854 25.22 13 55.3 40 -0.3 31.4
04:15 1024 30.24 854 25.22 12.2 54 45 0.6 33
04:20 1024 30.24 854 25.22 11.6 52.8 45 0.2 32.4
04:25 1024 30.24 854 25.22 11.6 52.9 44 -0.3 31.4
04:30 1024 30.24 854 25.22 12.5 54.5 39 -0.9 30.3
04:35 1024 30.24 854 25.22 12.6 54.7 42 0 32.1
04:40 1024 30.24 854 25.22 12 53.6 43 -0.2 31.7
04:45 1024 30.24 854 25.22 11.9 53.4 43 -0.3 31.5
04:50 1024 30.24 854 25.22 11.9 53.5 42 -0.4 31.2
04:55 1024 30.24 854 25.22 12.1 53.9 42 -0.3 31.4
05:00 1024 30.24 854 25.22 12 53.7 42 -0.5 31.2
05:05 1025 30.27 854 25.22 12 53.5 42 -0.5 31.2
05:10 1025 30.27 854 25.22 12 53.6 41 -0.6 30.8
05:15 1025 30.27 854 25.22 12.1 53.8 43 -0.2 31.6
05:20 1025 30.27 854 25.22 11.8 53.2 44 -0.1 31.8
05:25 1025 30.27 854 25.22 11.6 53 45 0 32
05:30 1024 30.24 854 25.22 11.6 52.9 43 -0.5 31.1
05:35 1025 30.27 854 25.22 11.9 53.4 42 -0.5 31.1
05:40 1025 30.27 854 25.22 12 53.7 42 -0.3 31.5
05:45 1025 30.27 854 25.22 12 53.6 42 -0.4 31.3
05:50 1025 30.27 854 25.22 12 53.7 41 -0.6 30.9
05:55 1025 30.27 854 25.22 12.3 54.1 40 -0.8 30.6
06:00 1025 30.27 854 25.22 12.5 54.6 41 -0.3 31.5
06:05 1025 30.27 854 25.22 12.4 54.3 42 -0.1 31.8
06:10 1025 30.27 854 25.22 12 53.6 44 0.3 32.6
06:15 1025 30.27 854 25.22 12 53.6 39 -1.4 29.4
06:20 1025 30.27 854 25.22 12.9 55.2 38 -0.9 30.3
06:25 1025 30.27 854 25.22 13.1 55.7 38 -0.6 30.8
06:30 1025 30.27 854 25.22 13.2 55.7 39 -0.2 31.6
06:35 1025 30.27 854 25.22 13.3 56 40 0 32
06:40 1025 30.27 854 25.22 13.5 56.2 39 0 32
06:45 1025 30.27 854 25.22 13.5 56.4 39 -0.2 31.6
06:50 1025 30.27 854 25.22 13.6 56.5 40 0.3 32.5
06:55 1025 30.27 854 25.22 13.8 56.8 39 0.2 32.4
07:00 1025 30.27 854 25.22 14 57.1 40 0.6 33.1
07:05 1025 30.27 854 25.22 14 57.2 40 0.6 33.1
07:10 1025 30.27 854 25.22 14 57.2 40 0.6 33.1
07:15 1025 30.27 854 25.22 14.2 57.6 39 0.5 32.9
07:20 1025 30.27 854 25.22 14.5 58.2 35 -0.8 30.6
07:25 1025 30.27 854 25.22 14.9 58.8 37 0.5 32.9
07:30 1025 30.27 854 25.22 15 59 38 0.8 33.4
07:35 1025 30.27 854 25.22 15.5 59.8 37 0.8 33.4
07:40 1025 30.27 854 25.22 15.9 60.7 36 0.9 33.7
07:45 1025 30.27 854 25.22 16 60.7 36 1.1 34
07:50 1025 30.27 854 25.22 16.3 61.4 36 1.4 34.5
07:55 1025 30.27 854 25.22 16.6 61.9 34 0.9 33.7
08:00 1025 30.27 854 25.22 17.1 62.7 40 3.3 38
08:05 1025 30.27 854 25.22 17.6 63.7 34 1.9 35.4
08:10 1025 30.27 854 25.22 17.3 63.2 33 1.1 34
08:15 1025 30.27 854 25.22 17.1 62.7 35 1.7 35
08:20 1025 30.27 854 25.22 17.4 63.2 35 2 35.6
08:25 1025 30.27 854 25.22 17.8 64 33 1.5 34.7
08:30 1025 30.27 854 25.22 18.1 64.6 32 1.4 34.5
08:35 1025 30.27 854 25.22 18.6 65.4 31 1.5 34.6
08:40 1025 30.27 854 25.22 18.8 65.9 32 1.9 35.4
08:45 1025 30.27 854 25.22 18.9 66 30 1 33.8
08:50 1025 30.27 854 25.22 19.4 67 29 1.3 34.3
08:55 1025 30.27 854 25.22 19.7 67.4 29 1.1 33.9
09:00 1025 30.27 854 25.22 20.2 68.3 28 1.3 34.4
09:05 1025 30.27 854 25.22 20.3 68.6 28 1.2 34.2
09:10 1025 30.27 854 25.22 20.3 68.5 28 1.5 34.7
09:15 1025 30.27 854 25.22 20.7 69.3 26 0.8 33.4
09:20 1025 30.27 854 25.22 21 69.9 26 1.1 34
09:25 1025 30.27 854 25.22 20.7 69.2 27 1.3 34.4
09:30 1025 30.27 854 25.22 20.7 69.3 28 1.5 34.7
09:35 1025 30.27 854 25.22 20.6 69.1 28 1.7 35.1
09:40 1025 30.27 854 25.22 21.2 70.2 26 1 33.9
09:45 1025 30.27 854 25.22 21.8 71.2 25 1.2 34.1
09:50 1025 30.27 854 25.22 21.6 70.8 25 0.9 33.7
09:55 1025 30.27 854 25.22 21.5 70.7 26 1.2 34.2
10:00 1025 30.27 854 25.22 22.1 71.7 24 0.6 33.1
10:05 1025 30.27 854 25.22 22.1 71.8 25 1.3 34.3
10:10 1025 30.27 854 25.22 22.3 72.1 24 1 33.7
10:15 1025 30.27 854 25.22 22.6 72.7 23 0.4 32.7
10:20 1025 30.27 854 25.22 23.2 73.7 22 0.2 32.4
10:25 1025 30.27 854 25.22 23.2 73.8 21 -0.3 31.5
10:30 1025 30.27 854 25.22 23 73.4 22 0.1 32.1
10:35 1025 30.27 854 25.22 23 73.4 22 0.1 32.3
10:40 1025 30.27 854 25.22 23.3 74 21 0.3 32.5
10:45 1025 30.27 854 25.22 24 75.1 21 0.4 32.7
10:50 1025 30.27 854 25.22 24 75.1 21 0.7 33.3
10:55 1025 30.27 854 25.22 23.5 74.3 21 0.1 32.2
11:00 1024 30.24 854 25.22 23.4 74.2 21 -0.1 31.8
11:05 1024 30.24 854 25.22 23.9 75 20 -0.3 31.5
11:10 1024 30.24 854 25.22 24.4 76 20 0.6 33.1
11:15 1024 30.24 854 25.22 24 75.1 21 0.2 32.4
11:20 1024 30.24 853 25.19 24.1 75.5 20 0.3 32.6
11:25 1024 30.24 853 25.19 24.9 76.8 20 0.3 32.6
11:30 1024 30.24 853 25.19 24.6 76.3 20 0.3 32.6
11:35 1024 30.24 853 25.19 24.7 76.5 20 0.5 32.9
11:40 1024 30.24 853 25.19 24.4 76 21 1.1 33.9
11:45 1024 30.24 853 25.19 25.1 77.1 19 0.4 32.7
11:50 1024 30.24 853 25.19 25.6 78.1 20 1 33.8
11:55 1024 30.24 853 25.19 26 78.8 20 1.7 35
12:00 1024 30.24 853 25.19 25.2 77.3 21 1.6 34.8
12:05 1024 30.24 853 25.19 25.1 77.2 20 0.8 33.5
12:10 1024 30.24 853 25.19 24.9 76.7 20 0.9 33.5
12:15 1024 30.24 853 25.19 25.8 78.4 20 1.3 34.3
12:20 1024 30.24 853 25.19 26 78.8 19 0.9 33.5
12:25 1024 30.24 853 25.19 26.5 79.7 20 2 35.6
12:30 1024 30.24 853 25.19 27 80.7 19 1.6 34.8
12:35 1024 30.24 853 25.19 27.1 80.8 18 1.2 34.2
12:40 1024 30.24 853 25.19 26.8 80.2 19 1.6 34.9
12:45 1023 30.21 853 25.19 27.1 80.8 18 1 33.8
12:50 1023 30.21 853 25.19 27.4 81.3 18 1.6 34.9
12:55 1023 30.21 852 25.16 27.5 81.5 18 1.6 34.9
13:00 1023 30.21 852 25.16 28.4 83.1 15 -0.4 31.3
13:05 1023 30.21 852 25.16 28.6 83.5 15 -0.4 31.4
13:10 1023 30.21 852 25.16 28.6 83.5 15 0 32.1
13:15 1023 30.21 852 25.16 28.6 83.4 15 -0 31.9
13:20 1023 30.21 852 25.16 28.5 83.3 15 -0.7 30.8
13:25 1023 30.21 852 25.16 28.2 82.7 16 0.3 32.6
13:30 1023 30.21 852 25.16 27.4 81.3 15 -0.8 30.5
13:35 1023 30.21 852 25.16 28.6 83.5 15 -0.7 30.8
13:40 1023 30.21 852 25.16 29.2 84.6 15 0.5 33
13:45 1023 30.21 852 25.16 29.4 84.9 15 0.2 32.4
13:50 1023 30.21 852 25.16 29.5 85 14 -0.5 31.1
13:55 1023 30.21 852 25.16 30.1 86.2 14 0.3 32.5
14:00 1023 30.21 852 25.16 29.8 85.7 13 -1.3 29.6
14:05 1023 30.21 852 25.16 28.4 83.1 14 -1.4 29.5
14:10 1022 30.18 852 25.16 29 84.2 12 -2.6 27.3
14:15 1022 30.18 852 25.16 29.7 85.4 13 -1.6 29.1
14:20 1022 30.18 852 25.16 30.3 86.5 13 -1.3 29.7
14:25 1022 30.18 851 25.13 30.3 86.5 13 -0.9 30.3
14:30 1022 30.18 851 25.13 30 86.1 13 -1.3 29.6
14:35 1022 30.18 851 25.13 29.8 85.6 12 -1.9 28.7
14:40 1022 30.18 851 25.13 29.6 85.3 12 -2.1 28.2
14:45 1022 30.18 851 25.13 29.4 85 13 -1.1 30.1
14:50 1022 30.18 851 25.13 29.6 85.4 12 -2.4 27.8
14:55 1022 30.18 851 25.13 29.2 84.6 13 -1.4 29.4
15:00 1022 30.18 851 25.13 29.7 85.5 13 -1.4 29.5
15:05 1022 30.18 851 25.13 30.2 86.3 13 -0.5 31.2
15:10 1022 30.18 851 25.13 29.9 85.8 15 0.4 32.7
15:15 1022 30.18 851 25.13 30 85.9 13 -1.4 29.5
15:20 1022 30.18 851 25.13 30 85.9 14 -0.5 31
15:25 1022 30.18 851 25.13 29.9 85.7 13 -1.4 29.5
15:30 1022 30.18 851 25.13 29.7 85.5 13 -1.5 29.3
15:35 1022 30.18 851 25.13 29.9 85.9 12 -1.7 28.9
15:40 1022 30.18 851 25.13 29.7 85.5 13 -1.7 28.9
15:45 1022 30.18 851 25.13 29.9 85.8 12 -1.9 28.7
15:50 1022 30.18 851 25.13 30.1 86.1 12 -1.6 29.2
15:55 1022 30.18 851 25.13 30.1 86.1 12 -1.6 29.1
16:00 1022 30.18 851 25.13 29.8 85.6 14 0.1 32.2
16:05 1021 30.15 851 25.13 29.7 85.4 13 -1.1 30
16:10 1021 30.15 851 25.13 29.8 85.6 13 -1 30.2
16:15 1021 30.15 851 25.13 29.8 85.6 12 -1.9 28.5
16:20 1021 30.15 851 25.13 30 85.9 13 -0.8 30.6
16:25 1021 30.15 851 25.13 29.9 85.8 13 -1.2 29.8
16:30 1021 30.15 851 25.13 30 86 13 -0.6 30.9
16:35 1021 30.15 850 25.1 29.9 85.9 12 -1.7 28.9
16:40 1021 30.15 850 25.1 30 85.9 13 -1.1 29.9
16:45 1021 30.15 850 25.1 29.8 85.7 13 -0.9 30.4
16:50 1021 30.15 850 25.1 29.5 85 13 -1.4 29.6
16:55 1021 30.15 850 25.1 29.3 84.8 13 -1.6 29.2
17:00 1021 30.15 850 25.1 29.6 85.4 13 -1.4 29.4
17:05 1021 30.15 850 25.1 29.5 85.1 13 -1.8 28.8
17:10 1021 30.15 850 25.1 29.5 85.2 13 -1 30.3
17:15 1021 30.15 850 25.1 29.8 85.6 13 -0.9 30.4
17:20 1021 30.15 850 25.1 29.7 85.4 13 -1.8 28.8
17:25 1021 30.15 850 25.1 29.7 85.5 13 -1.7 28.9
17:30 1021 30.15 850 25.1 29.8 85.7 14 0 32
17:35 1021 30.15 850 25.1 29.6 85.2 13 -1.3 29.6
17:40 1021 30.15 850 25.1 28.9 84 13 -1.8 28.8
17:45 1021 30.15 850 25.1 28.7 83.6 13 -2 28.3
17:50 1021 30.15 850 25.1 28.6 83.4 13 -2 28.3
17:55 1021 30.15 850 25.1 28.6 83.5 14 -1.1 30
18:00 1021 30.15 850 25.1 28.5 83.4 14 -1.1 30
18:05 1021 30.15 850 25.1 28.5 83.2 15 -0.2 31.7
18:10 1021 30.15 850 25.1 28.3 83 15 -0 31.9
18:15 1021 30.15 850 25.1 28.2 82.7 15 -0.7 30.7
18:20 1021 30.15 850 25.1 28.1 82.7 14 -1.3 29.6
18:25 1021 30.15 850 25.1 28.1 82.6 18 1.5 34.7
18:30 1021 30.15 850 25.1 27.9 82.1 17 0.6 33.2
18:35 1021 30.15 850 25.1 27.6 81.6 16 -0.4 31.3
18:40 1021 30.15 850 25.1 27.4 81.3 20 2.6 36.7
18:45 1021 30.15 850 25.1 27.1 80.8 18 1.3 34.3
18:50 1021 30.15 850 25.1 26.8 80.3 18 0.5 32.8
18:55 1021 30.15 850 25.1 26.6 79.9 22 3.2 37.8
19:00 1021 30.15 850 25.1 26.2 79.1 21 2.4 36.3
19:05 1021 30.15 850 25.1 25.7 78.3 23 3.5 38.4
19:10 1021 30.15 850 25.1 25.3 77.5 25 4 39.3
19:15 1021 30.15 850 25.1 24.5 76.1 28 4.9 40.9
19:20 1021 30.15 850 25.1 23.5 74.3 29 4.8 40.7
19:25 1021 30.15 850 25.1 23.1 73.5 28 3.7 38.7
19:30 1021 30.15 850 25.1 22.9 73.2 28 3.4 38.1
19:35 1021 30.15 850 25.1 22.7 72.9 29 4.1 39.3
19:40 1021 30.15 850 25.1 22.4 72.3 29 3.8 38.9
19:45 1021 30.15 850 25.1 21.6 70.8 33 4.9 40.8
19:50 1021 30.15 850 25.1 20.8 69.4 34 4.6 40.3
19:55 1021 30.15 850 25.1 20.5 68.9 33 3.7 38.7
20:00 1021 30.15 850 25.1 20.7 69.3 28 2 35.5
20:05 1021 30.15 850 25.1 21.4 70.5 28 2.3 36.1
20:10 1021 30.15 850 25.1 21 69.9 28 1.8 35.2
20:15 1021 30.15 850 25.1 20.9 69.5 28 1.7 35.1
20:20 1021 30.15 850 25.1 20.7 69.3 28 1.5 34.7
20:25 1021 30.15 850 25.1 20.6 69 27 1 33.8
20:30 1021 30.15 850 25.1 20.7 69.2 27 1 33.8
20:35 1021 30.15 850 25.1 20.6 69 27 1 33.8
20:40 1021 30.15 850 25.1 20.6 69.1 25 0 32.1
20:45 1021 30.15 850 25.1 21 69.8 26 0.8 33.5
20:50 1021 30.15 850 25.1 20.6 69.1 27 1 33.8
20:55 1021 30.15 850 25.1 20.2 68.4 27 0.9 33.7
21:00 1021 30.15 850 25.1 20 68.1 27 0.8 33.4
21:05 1021 30.15 850 25.1 20 67.9 27 0.7 33.3
21:10 1021 30.15 850 25.1 19.9 67.8 27 0.7 33.2
21:15 1021 30.15 850 25.1 19.9 67.7 27 0.7 33.2
21:20 1021 30.15 850 25.1 19.8 67.6 27 0.5 32.9
21:25 1021 30.15 850 25.1 19.7 67.5 27 0.5 32.9
21:30 1021 30.15 850 25.1 19.7 67.4 27 0.4 32.6
21:35 1021 30.15 850 25.1 19.6 67.2 27 0.4 32.7
21:40 1021 30.15 850 25.1 19.3 66.8 28 0.6 33
21:45 1021 30.15 851 25.13 19 66.3 28 0.4 32.8
21:50 1021 30.15 851 25.13 19.3 66.8 26 -0.4 31.2
21:55 1021 30.15 851 25.13 20.1 68.3 25 -0.2 31.7
22:00 1021 30.15 851 25.13 20.2 68.4 26 0.2 32.4
22:05 1021 30.15 851 25.13 19.7 67.4 27 0.3 32.5
22:10 1022 30.18 851 25.13 19.3 66.7 27 0.1 32.2
22:15 1022 30.18 851 25.13 19.1 66.4 28 0.1 32.2
22:20 1022 30.18 851 25.13 19.4 66.8 26 -0.3 31.4
22:25 1022 30.18 851 25.13 19.6 67.3 26 -0.2 31.7
22:30 1022 30.18 851 25.13 19.6 67.3 25 -0.6 31
22:35 1022 30.18 851 25.13 19.6 67.2 25 -0.7 30.7
22:40 1022 30.18 851 25.13 19.6 67.3 25 -0.6 30.9
22:45 1022 30.18 851 25.13 19.6 67.2 26 -0.5 31.1
22:50 1022 30.18 851 25.13 19.4 67 29 1 33.8
22:55 1022 30.18 851 25.13 18.9 65.9 30 1.3 34.3
23:00 1022 30.18 851 25.13 18.2 64.7 32 1.5 34.7
23:05 1022 30.18 851 25.13 17.7 63.9 33 1.4 34.4
23:10 1022 30.18 851 25.13 17.3 63.1 32 0.6 33.1
23:15 1022 30.18 851 25.13 17.4 63.3 35 2 35.6
23:20 1022 30.18 851 25.13 17.4 63.3 30 -0.4 31.3
23:25 1022 30.18 851 25.13 17.9 64.2 35 2.5 36.4
23:30 1022 30.18 851 25.13 16.6 61.9 37 2.1 35.7
23:35 1022 30.18 851 25.13 16.4 61.6 36 1.5 34.7
23:40 1022 30.18 851 25.13 16.5 61.6 36 1.5 34.8
23:45 1022 30.18 851 25.13 16.3 61.3 37 1.6 34.9
23:50 1022 30.18 851 25.13 16.1 61 36 1.2 34.2
23:55 1022 30.18 851 25.13 16.4 61.4 36 1.2 34.2
24:00 1022 30.18 851 25.13 16.3 61.4 36 1.4 34.6